sensor_id;sensor_type;location;lat;lon;timestamp;pressure;altitude;pressure_sealevel;temperature;humidity
70982;BME280;58640;51.320;9.456;2023-05-03T00:00:24;100445.16;;;4.49;75.83
70982;BME280;58640;51.320;9.456;2023-05-03T00:02:50;100441.50;;;4.50;75.54
70982;BME280;58640;51.320;9.456;2023-05-03T00:05:18;100431.94;;;4.47;75.62
70982;BME280;58640;51.320;9.456;2023-05-03T00:07:45;100439.06;;;4.47;75.51
70982;BME280;58640;51.320;9.456;2023-05-03T00:10:11;100438.78;;;4.39;76.13
70982;BME280;58640;51.320;9.456;2023-05-03T00:12:41;100435.72;;;4.32;76.67
70982;BME280;58640;51.320;9.456;2023-05-03T00:15:07;100437.78;;;4.29;77.19
70982;BME280;58640;51.320;9.456;2023-05-03T00:17:33;100438.94;;;4.25;76.87
70982;BME280;58640;51.320;9.456;2023-05-03T00:19:58;100449.72;;;4.23;77.12
70982;BME280;58640;51.320;9.456;2023-05-03T00:22:24;100457.06;;;4.20;77.23
70982;BME280;58640;51.320;9.456;2023-05-03T00:24:51;100459.50;;;4.23;77.82
70982;BME280;58640;51.320;9.456;2023-05-03T00:27:17;100457.41;;;4.15;77.05
70982;BME280;58640;51.320;9.456;2023-05-03T00:29:42;100456.16;;;4.08;78.05
70982;BME280;58640;51.320;9.456;2023-05-03T00:32:07;100453.59;;;4.07;78.39
70982;BME280;58640;51.320;9.456;2023-05-03T00:34:35;100459.53;;;4.10;77.75
70982;BME280;58640;51.320;9.456;2023-05-03T00:37:00;100453.81;;;4.04;78.71
70982;BME280;58640;51.320;9.456;2023-05-03T00:39:28;100455.34;;;3.95;78.70
70982;BME280;58640;51.320;9.456;2023-05-03T00:41:56;100458.94;;;3.94;79.31
70982;BME280;58640;51.320;9.456;2023-05-03T00:44:22;100458.31;;;3.91;80.26
70982;BME280;58640;51.320;9.456;2023-05-03T00:46:48;100453.53;;;3.83;80.26
70982;BME280;58640;51.320;9.456;2023-05-03T00:49:13;100450.66;;;3.86;79.79
70982;BME280;58640;51.320;9.456;2023-05-03T00:51:39;100446.72;;;3.92;79.67
70982;BME280;58640;51.320;9.456;2023-05-03T00:54:06;100452.88;;;3.80;80.34
70982;BME280;58640;51.320;9.456;2023-05-03T00:56:32;100454.63;;;3.68;81.38
70982;BME280;58640;51.320;9.456;2023-05-03T00:58:58;100450.34;;;3.66;80.99
70982;BME280;58640;51.320;9.456;2023-05-03T01:01:23;100458.22;;;3.67;81.42
70982;BME280;58640;51.320;9.456;2023-05-03T01:03:49;100446.66;;;3.56;81.86
70982;BME280;58640;51.320;9.456;2023-05-03T01:11:54;100458.56;;;3.50;81.72
70982;BME280;58640;51.320;9.456;2023-05-03T01:15:05;100457.38;;;3.42;82.37
70982;BME280;58640;51.320;9.456;2023-05-03T01:17:35;100452.91;;;3.42;82.10
70982;BME280;58640;51.320;9.456;2023-05-03T01:20:05;100448.13;;;3.47;82.28
70982;BME280;58640;51.320;9.456;2023-05-03T01:22:59;100447.06;;;3.50;82.40
70982;BME280;58640;51.320;9.456;2023-05-03T01:25:26;100453.88;;;3.41;82.33
70982;BME280;58640;51.320;9.456;2023-05-03T01:27:51;100452.59;;;3.34;83.24
70982;BME280;58640;51.320;9.456;2023-05-03T01:30:19;100449.41;;;3.29;83.17
70982;BME280;58640;51.320;9.456;2023-05-03T01:35:41;100447.59;;;3.17;84.09
70982;BME280;58640;51.320;9.456;2023-05-03T01:38:08;100449.72;;;3.12;84.23
70982;BME280;58640;51.320;9.456;2023-05-03T01:40:54;100450.25;;;3.05;84.89
70982;BME280;58640;51.320;9.456;2023-05-03T01:43:23;100451.94;;;3.06;84.75
70982;BME280;58640;51.320;9.456;2023-05-03T01:45:49;100456.28;;;3.07;84.81
70982;BME280;58640;51.320;9.456;2023-05-03T01:48:16;100445.66;;;3.07;84.74
70982;BME280;58640;51.320;9.456;2023-05-03T01:50:42;100456.81;;;2.99;85.89
70982;BME280;58640;51.320;9.456;2023-05-03T01:53:07;100453.59;;;2.94;85.95
70982;BME280;58640;51.320;9.456;2023-05-03T01:55:33;100460.81;;;2.92;85.63
70982;BME280;58640;51.320;9.456;2023-05-03T01:57:58;100463.25;;;2.82;86.33
70982;BME280;58640;51.320;9.456;2023-05-03T02:00:23;100459.19;;;2.77;87.00
70982;BME280;58640;51.320;9.456;2023-05-03T02:02:49;100465.06;;;2.82;86.45
70982;BME280;58640;51.320;9.456;2023-05-03T02:05:14;100471.63;;;2.76;86.58
70982;BME280;58640;51.320;9.456;2023-05-03T02:07:40;100470.13;;;2.72;86.91
70982;BME280;58640;51.320;9.456;2023-05-03T02:10:05;100475.56;;;2.71;87.11
70982;BME280;58640;51.320;9.456;2023-05-03T02:12:31;100474.78;;;2.69;87.38
70982;BME280;58640;51.320;9.456;2023-05-03T02:14:56;100473.94;;;2.68;87.36
70982;BME280;58640;51.320;9.456;2023-05-03T02:17:22;100469.47;;;2.69;87.18
70982;BME280;58640;51.320;9.456;2023-05-03T02:19:53;100467.47;;;2.72;86.90
70982;BME280;58640;51.320;9.456;2023-05-03T02:22:19;100471.63;;;2.76;86.83
70982;BME280;58640;51.320;9.456;2023-05-03T02:24:44;100477.25;;;2.72;87.09
70982;BME280;58640;51.320;9.456;2023-05-03T02:27:10;100475.00;;;2.66;87.65
70982;BME280;58640;51.320;9.456;2023-05-03T02:29:36;100480.53;;;2.63;87.49
70982;BME280;58640;51.320;9.456;2023-05-03T02:32:01;100473.78;;;2.57;88.26
70982;BME280;58640;51.320;9.456;2023-05-03T02:34:30;100481.00;;;2.55;87.70
70982;BME280;58640;51.320;9.456;2023-05-03T02:36:55;100474.00;;;2.54;87.65
70982;BME280;58640;51.320;9.456;2023-05-03T02:39:21;100488.25;;;2.53;87.42
70982;BME280;58640;51.320;9.456;2023-05-03T02:41:46;100488.81;;;2.44;88.09
70982;BME280;58640;51.320;9.456;2023-05-03T02:44:12;100491.00;;;2.38;88.50
70982;BME280;58640;51.320;9.456;2023-05-03T02:46:37;100490.63;;;2.44;87.88
70982;BME280;58640;51.320;9.456;2023-05-03T02:49:02;100492.34;;;2.45;87.76
70982;BME280;58640;51.320;9.456;2023-05-03T02:51:27;100494.53;;;2.38;88.12
70982;BME280;58640;51.320;9.456;2023-05-03T02:53:53;100483.50;;;2.44;87.40
70982;BME280;58640;51.320;9.456;2023-05-03T02:56:18;100494.97;;;2.45;87.61
70982;BME280;58640;51.320;9.456;2023-05-03T02:58:44;100501.34;;;2.42;87.70
70982;BME280;58640;51.320;9.456;2023-05-03T03:01:10;100502.38;;;2.40;88.01
70982;BME280;58640;51.320;9.456;2023-05-03T03:03:35;100504.84;;;2.43;87.79
70982;BME280;58640;51.320;9.456;2023-05-03T03:06:01;100498.03;;;2.39;87.84
70982;BME280;58640;51.320;9.456;2023-05-03T03:08:26;100497.19;;;2.38;88.08
70982;BME280;58640;51.320;9.456;2023-05-03T03:10:51;100499.72;;;2.40;88.16
70982;BME280;58640;51.320;9.456;2023-05-03T03:13:17;100504.28;;;2.38;88.07
70982;BME280;58640;51.320;9.456;2023-05-03T03:15:42;100501.56;;;2.39;88.04
70982;BME280;58640;51.320;9.456;2023-05-03T03:18:07;100502.22;;;2.29;88.62
70982;BME280;58640;51.320;9.456;2023-05-03T03:20:33;100505.75;;;2.29;89.07
70982;BME280;58640;51.320;9.456;2023-05-03T03:22:58;100505.75;;;2.29;89.20
70982;BME280;58640;51.320;9.456;2023-05-03T03:25:23;100501.56;;;2.25;89.80
70982;BME280;58640;51.320;9.456;2023-05-03T03:27:49;100507.16;;;2.21;90.06
70982;BME280;58640;51.320;9.456;2023-05-03T03:30:14;100508.91;;;2.22;90.39
70982;BME280;58640;51.320;9.456;2023-05-03T03:32:40;100499.88;;;2.24;90.00
70982;BME280;58640;51.320;9.456;2023-05-03T03:35:05;100499.41;;;2.18;89.69
70982;BME280;58640;51.320;9.456;2023-05-03T03:37:31;100498.66;;;2.16;90.46
70982;BME280;58640;51.320;9.456;2023-05-03T03:39:56;100499.59;;;2.15;90.18
70982;BME280;58640;51.320;9.456;2023-05-03T03:42:21;100497.91;;;2.14;90.00
70982;BME280;58640;51.320;9.456;2023-05-03T03:44:48;100492.78;;;2.11;90.49
70982;BME280;58640;51.320;9.456;2023-05-03T03:47:14;100502.56;;;2.10;90.31
70982;BME280;58640;51.320;9.456;2023-05-03T03:49:39;100499.91;;;2.10;90.25
70982;BME280;58640;51.320;9.456;2023-05-03T03:52:05;100500.00;;;2.09;90.22
70982;BME280;58640;51.320;9.456;2023-05-03T03:54:31;100504.34;;;2.10;90.63
70982;BME280;58640;51.320;9.456;2023-05-03T03:56:58;100497.34;;;2.09;89.93
70982;BME280;58640;51.320;9.456;2023-05-03T03:59:24;100513.06;;;2.12;90.29
70982;BME280;58640;51.320;9.456;2023-05-03T04:01:49;100505.75;;;2.01;90.56
70982;BME280;58640;51.320;9.456;2023-05-03T04:04:14;100508.72;;;1.97;90.64
70982;BME280;58640;51.320;9.456;2023-05-03T04:06:40;100516.09;;;1.92;90.35
70982;BME280;58640;51.320;9.456;2023-05-03T04:09:05;100503.69;;;1.92;90.92
70982;BME280;58640;51.320;9.456;2023-05-03T04:11:30;100508.91;;;1.94;90.81
70982;BME280;58640;51.320;9.456;2023-05-03T04:13:56;100507.78;;;1.98;90.62
70982;BME280;58640;51.320;9.456;2023-05-03T04:16:21;100503.13;;;2.01;91.00
70982;BME280;58640;51.320;9.456;2023-05-03T04:18:47;100502.38;;;1.99;90.69
70982;BME280;58640;51.320;9.456;2023-05-03T04:21:12;100502.47;;;1.98;90.73
70982;BME280;58640;51.320;9.456;2023-05-03T04:23:37;100508.16;;;2.06;90.65
70982;BME280;58640;51.320;9.456;2023-05-03T04:26:03;100504.75;;;2.04;90.79
70982;BME280;58640;51.320;9.456;2023-05-03T04:28:28;100505.75;;;2.01;90.89
70982;BME280;58640;51.320;9.456;2023-05-03T04:30:54;100509.66;;;2.10;91.09
70982;BME280;58640;51.320;9.456;2023-05-03T04:33:20;100508.13;;;2.20;90.38
70982;BME280;58640;51.320;9.456;2023-05-03T04:35:50;100516.84;;;2.22;89.79
70982;BME280;58640;51.320;9.456;2023-05-03T04:38:16;100517.69;;;2.22;90.43
70982;BME280;58640;51.320;9.456;2023-05-03T04:40:41;100511.56;;;2.22;90.14
70982;BME280;58640;51.320;9.456;2023-05-03T04:43:07;100513.03;;;2.26;90.42
70982;BME280;58640;51.320;9.456;2023-05-03T04:45:32;100520.72;;;2.30;90.05
70982;BME280;58640;51.320;9.456;2023-05-03T04:47:58;100514.06;;;2.37;89.89
70982;BME280;58640;51.320;9.456;2023-05-03T04:50:23;100515.47;;;2.43;89.17
70982;BME280;58640;51.320;9.456;2023-05-03T04:52:48;100520.22;;;2.52;89.00
70982;BME280;58640;51.320;9.456;2023-05-03T04:55:14;100524.81;;;2.62;88.27
70982;BME280;58640;51.320;9.456;2023-05-03T04:57:39;100523.69;;;2.66;88.36
70982;BME280;58640;51.320;9.456;2023-05-03T05:00:05;100529.41;;;2.73;88.20
70982;BME280;58640;51.320;9.456;2023-05-03T05:02:35;100525.72;;;2.75;87.68
70982;BME280;58640;51.320;9.456;2023-05-03T05:05:01;100529.66;;;2.82;87.64
70982;BME280;58640;51.320;9.456;2023-05-03T05:07:26;100541.59;;;2.89;87.52
70982;BME280;58640;51.320;9.456;2023-05-03T05:09:51;100541.28;;;2.94;87.88
70982;BME280;58640;51.320;9.456;2023-05-03T05:12:17;100540.19;;;3.11;87.01
70982;BME280;58640;51.320;9.456;2023-05-03T05:14:44;100544.66;;;3.23;86.76
70982;BME280;58640;51.320;9.456;2023-05-03T05:17:09;100541.63;;;3.29;87.04
70982;BME280;58640;51.320;9.456;2023-05-03T05:19:34;100544.69;;;3.35;87.03
70982;BME280;58640;51.320;9.456;2023-05-03T05:22:00;100548.66;;;3.42;86.87
70982;BME280;58640;51.320;9.456;2023-05-03T05:24:25;100544.31;;;3.54;86.17
70982;BME280;58640;51.320;9.456;2023-05-03T05:26:51;100539.44;;;3.60;86.37
70982;BME280;58640;51.320;9.456;2023-05-03T05:29:16;100543.78;;;3.74;86.21
70982;BME280;58640;51.320;9.456;2023-05-03T05:31:42;100542.97;;;3.86;85.95
70982;BME280;58640;51.320;9.456;2023-05-03T05:34:07;100546.25;;;4.02;85.42
70982;BME280;58640;51.320;9.456;2023-05-03T05:36:32;100543.88;;;4.22;84.34
70982;BME280;58640;51.320;9.456;2023-05-03T05:38:58;100541.72;;;4.40;83.27
70982;BME280;58640;51.320;9.456;2023-05-03T05:41:23;100544.41;;;4.64;82.23
70982;BME280;58640;51.320;9.456;2023-05-03T05:43:48;100543.03;;;4.94;80.23
70982;BME280;58640;51.320;9.456;2023-05-03T05:46:14;100545.97;;;5.26;79.22
70982;BME280;58640;51.320;9.456;2023-05-03T05:48:40;100545.69;;;5.63;78.22
70982;BME280;58640;51.320;9.456;2023-05-03T05:51:07;100546.19;;;6.03;74.89
70982;BME280;58640;51.320;9.456;2023-05-03T05:53:33;100551.50;;;6.58;72.66
70982;BME280;58640;51.320;9.456;2023-05-03T05:55:58;100549.03;;;6.77;71.31
70982;BME280;58640;51.320;9.456;2023-05-03T05:58:23;100551.97;;;7.17;71.26
70982;BME280;58640;51.320;9.456;2023-05-03T06:00:49;100547.38;;;7.39;68.83
70982;BME280;58640;51.320;9.456;2023-05-03T06:03:14;100539.63;;;7.78;66.92
70982;BME280;58640;51.320;9.456;2023-05-03T06:05:40;100546.03;;;8.37;65.07
70982;BME280;58640;51.320;9.456;2023-05-03T06:08:06;100537.69;;;8.79;62.22
70982;BME280;58640;51.320;9.456;2023-05-03T06:10:31;100543.97;;;9.28;61.31
70982;BME280;58640;51.320;9.456;2023-05-03T06:12:57;100549.16;;;9.86;58.00
70982;BME280;58640;51.320;9.456;2023-05-03T06:15:22;100547.19;;;9.88;58.50
70982;BME280;58640;51.320;9.456;2023-05-03T06:17:47;100546.34;;;10.44;56.10
70982;BME280;58640;51.320;9.456;2023-05-03T06:20:13;100547.53;;;10.59;54.85
70982;BME280;58640;51.320;9.456;2023-05-03T06:22:38;100543.97;;;11.12;53.81
70982;BME280;58640;51.320;9.456;2023-05-03T06:25:04;100540.50;;;11.90;51.65
70982;BME280;58640;51.320;9.456;2023-05-03T06:27:31;100547.28;;;12.53;49.22
70982;BME280;58640;51.320;9.456;2023-05-03T06:29:56;100551.44;;;12.81;49.69
70982;BME280;58640;51.320;9.456;2023-05-03T06:32:22;100548.41;;;14.38;44.32
70982;BME280;58640;51.320;9.456;2023-05-03T06:34:48;100558.63;;;15.14;43.17
70982;BME280;58640;51.320;9.456;2023-05-03T06:37:14;100560.03;;;14.63;43.49
70982;BME280;58640;51.320;9.456;2023-05-03T06:39:39;100564.59;;;15.32;42.94
70982;BME280;58640;51.320;9.456;2023-05-03T06:42:05;100568.31;;;16.58;40.20
70982;BME280;58640;51.320;9.456;2023-05-03T06:44:30;100564.91;;;17.00;37.90
70982;BME280;58640;51.320;9.456;2023-05-03T06:46:56;100558.88;;;17.97;36.38
70982;BME280;58640;51.320;9.456;2023-05-03T06:49:21;100563.41;;;19.47;33.86
70982;BME280;58640;51.320;9.456;2023-05-03T06:51:46;100566.16;;;21.41;29.87
70982;BME280;58640;51.320;9.456;2023-05-03T06:54:12;100572.00;;;22.69;27.18
70982;BME280;58640;51.320;9.456;2023-05-03T06:56:38;100559.97;;;22.21;27.62
70982;BME280;58640;51.320;9.456;2023-05-03T06:59:04;100573.97;;;23.53;25.48
70982;BME280;58640;51.320;9.456;2023-05-03T07:01:33;100572.88;;;24.01;24.95
70982;BME280;58640;51.320;9.456;2023-05-03T07:03:59;100573.00;;;23.77;25.55
70982;BME280;58640;51.320;9.456;2023-05-03T07:06:24;100571.00;;;23.95;24.84
70982;BME280;58640;51.320;9.456;2023-05-03T07:08:50;100569.38;;;25.44;23.83
70982;BME280;58640;51.320;9.456;2023-05-03T07:11:17;100564.47;;;26.69;21.43
70982;BME280;58640;51.320;9.456;2023-05-03T07:13:42;100571.44;;;25.26;22.58
70982;BME280;58640;51.320;9.456;2023-05-03T07:16:08;100561.31;;;23.52;25.09
70982;BME280;58640;51.320;9.456;2023-05-03T07:18:33;100567.69;;;24.92;23.47
70982;BME280;58640;51.320;9.456;2023-05-03T07:20:58;100566.97;;;24.50;23.44
70982;BME280;58640;51.320;9.456;2023-05-03T07:23:30;100563.25;;;23.92;24.14
70982;BME280;58640;51.320;9.456;2023-05-03T07:25:55;100575.34;;;25.02;22.20
70982;BME280;58640;51.320;9.456;2023-05-03T07:28:20;100565.72;;;23.53;25.43
70982;BME280;58640;51.320;9.456;2023-05-03T07:30:46;100563.84;;;23.65;24.41
70982;BME280;58640;51.320;9.456;2023-05-03T07:33:11;100557.84;;;24.27;24.89
70982;BME280;58640;51.320;9.456;2023-05-03T07:35:36;100568.81;;;24.04;24.61
70982;BME280;58640;51.320;9.456;2023-05-03T07:38:02;100560.59;;;24.50;22.96
70982;BME280;58640;51.320;9.456;2023-05-03T07:40:27;100557.44;;;25.27;21.37
70982;BME280;58640;51.320;9.456;2023-05-03T07:42:56;100556.84;;;23.69;23.65
70982;BME280;58640;51.320;9.456;2023-05-03T07:45:22;100552.72;;;20.70;27.79
70982;BME280;58640;51.320;9.456;2023-05-03T07:47:47;100546.16;;;18.52;31.96
70982;BME280;58640;51.320;9.456;2023-05-03T07:50:12;100547.94;;;19.14;30.71
70982;BME280;58640;51.320;9.456;2023-05-03T07:52:38;100549.47;;;18.20;31.74
70982;BME280;58640;51.320;9.456;2023-05-03T07:55:05;100551.47;;;17.63;32.87
70982;BME280;58640;51.320;9.456;2023-05-03T07:57:31;100551.13;;;16.29;34.62
70982;BME280;58640;51.320;9.456;2023-05-03T07:59:57;100538.19;;;16.16;35.25
70982;BME280;58640;51.320;9.456;2023-05-03T08:02:22;100539.97;;;16.24;37.01
70982;BME280;58640;51.320;9.456;2023-05-03T08:04:47;100544.81;;;16.13;35.90
70982;BME280;58640;51.320;9.456;2023-05-03T08:07:13;100536.28;;;17.54;34.11
70982;BME280;58640;51.320;9.456;2023-05-03T08:09:39;100534.22;;;19.48;29.60
70982;BME280;58640;51.320;9.456;2023-05-03T08:12:05;100532.84;;;20.30;28.25
70982;BME280;58640;51.320;9.456;2023-05-03T08:14:30;100531.53;;;20.46;28.08
70982;BME280;58640;51.320;9.456;2023-05-03T08:16:56;100530.38;;;19.23;28.67
70982;BME280;58640;51.320;9.456;2023-05-03T08:19:21;100536.00;;;19.15;29.54
70982;BME280;58640;51.320;9.456;2023-05-03T08:21:46;100530.50;;;21.92;25.44
70982;BME280;58640;51.320;9.456;2023-05-03T08:24:12;100537.63;;;22.42;24.04
70982;BME280;58640;51.320;9.456;2023-05-03T08:26:39;100528.78;;;20.59;26.57
70982;BME280;58640;51.320;9.456;2023-05-03T08:29:05;100526.22;;;20.77;27.43
70982;BME280;58640;51.320;9.456;2023-05-03T08:31:30;100531.91;;;22.26;26.39
70982;BME280;58640;51.320;9.456;2023-05-03T08:33:56;100534.81;;;23.09;24.12
70982;BME280;58640;51.320;9.456;2023-05-03T08:36:21;100533.97;;;23.09;22.95
70982;BME280;58640;51.320;9.456;2023-05-03T08:38:48;100519.19;;;23.10;22.75
70982;BME280;58640;51.320;9.456;2023-05-03T08:41:21;100530.00;;;23.23;23.21
70982;BME280;58640;51.320;9.456;2023-05-03T08:43:55;100522.91;;;24.16;22.66
70982;BME280;58640;51.320;9.456;2023-05-03T08:46:21;100522.78;;;23.58;23.08
70982;BME280;58640;51.320;9.456;2023-05-03T08:48:48;100518.66;;;23.79;22.04
70982;BME280;58640;51.320;9.456;2023-05-03T08:51:15;100524.81;;;23.63;22.17
70982;BME280;58640;51.320;9.456;2023-05-03T08:53:40;100508.34;;;24.38;21.64
70982;BME280;58640;51.320;9.456;2023-05-03T08:56:07;100529.53;;;24.84;22.15
70982;BME280;58640;51.320;9.456;2023-05-03T08:58:34;100530.44;;;23.38;24.09
70982;BME280;58640;51.320;9.456;2023-05-03T09:01:04;100525.53;;;22.92;24.62
70982;BME280;58640;51.320;9.456;2023-05-03T09:03:30;100519.50;;;22.84;24.10
70982;BME280;58640;51.320;9.456;2023-05-03T09:05:56;100515.28;;;24.29;21.71
70982;BME280;58640;51.320;9.456;2023-05-03T09:08:29;100518.25;;;22.98;24.64
70982;BME280;58640;51.320;9.456;2023-05-03T09:10:55;100521.31;;;22.29;25.57
70982;BME280;58640;51.320;9.456;2023-05-03T09:13:30;100519.41;;;22.90;23.53
70982;BME280;58640;51.320;9.456;2023-05-03T09:15:56;100520.78;;;22.63;24.27
70982;BME280;58640;51.320;9.456;2023-05-03T09:18:22;100520.28;;;22.48;24.32
70982;BME280;58640;51.320;9.456;2023-05-03T09:20:50;100520.66;;;22.09;24.96
70982;BME280;58640;51.320;9.456;2023-05-03T09:23:28;100514.69;;;22.79;23.64
70982;BME280;58640;51.320;9.456;2023-05-03T09:25:55;100517.09;;;21.84;26.19
70982;BME280;58640;51.320;9.456;2023-05-03T09:28:21;100514.59;;;21.38;26.30
70982;BME280;58640;51.320;9.456;2023-05-03T09:30:47;100519.09;;;20.69;26.49
70982;BME280;58640;51.320;9.456;2023-05-03T09:33:13;100514.53;;;20.50;26.90
70982;BME280;58640;51.320;9.456;2023-05-03T09:35:57;100511.19;;;20.22;27.59
70982;BME280;58640;51.320;9.456;2023-05-03T09:38:54;100512.06;;;20.93;26.10
70982;BME280;58640;51.320;9.456;2023-05-03T12:43:31;100363.72;;;13.82;40.16
70982;BME280;58640;51.320;9.456;2023-05-03T13:46:21;100277.13;;;14.28;38.14
70982;BME280;58640;51.320;9.456;2023-05-03T13:48:47;100289.31;;;14.32;39.11
70982;BME280;58640;51.320;9.456;2023-05-03T13:51:40;100281.63;;;14.44;39.26
70982;BME280;58640;51.320;9.456;2023-05-03T13:54:46;100278.91;;;14.44;38.40
70982;BME280;58640;51.320;9.456;2023-05-03T14:03:18;100263.09;;;14.25;38.31
70982;BME280;58640;51.320;9.456;2023-05-03T14:06:17;100267.72;;;14.47;40.23
70982;BME280;58640;51.320;9.456;2023-05-03T14:09:04;100262.44;;;14.53;38.36
70982;BME280;58640;51.320;9.456;2023-05-03T14:11:41;100265.00;;;14.47;38.52
70982;BME280;58640;51.320;9.456;2023-05-03T14:14:10;100256.72;;;14.48;37.77
70982;BME280;58640;51.320;9.456;2023-05-03T14:16:37;100250.50;;;14.40;38.03
70982;BME280;58640;51.320;9.456;2023-05-03T14:19:15;100262.81;;;14.42;38.36
70982;BME280;58640;51.320;9.456;2023-05-03T14:22:10;100257.16;;;14.52;39.08
70982;BME280;58640;51.320;9.456;2023-05-03T14:24:45;100257.91;;;14.46;39.30
70982;BME280;58640;51.320;9.456;2023-05-03T14:27:13;100254.88;;;14.41;38.05
70982;BME280;58640;51.320;9.456;2023-05-03T14:29:45;100240.22;;;14.58;38.57
70982;BME280;58640;51.320;9.456;2023-05-03T14:32:31;100252.22;;;14.55;38.35
70982;BME280;58640;51.320;9.456;2023-05-03T14:35:14;100247.56;;;14.49;38.97
70982;BME280;58640;51.320;9.456;2023-05-03T14:37:44;100236.06;;;14.47;38.02
70982;BME280;58640;51.320;9.456;2023-05-03T14:40:30;100238.56;;;14.49;38.17
70982;BME280;58640;51.320;9.456;2023-05-03T14:42:56;100237.69;;;14.56;38.98
70982;BME280;58640;51.320;9.456;2023-05-03T14:45:29;100239.78;;;14.69;38.66
70982;BME280;58640;51.320;9.456;2023-05-03T14:48:24;100238.44;;;14.65;37.39
70982;BME280;58640;51.320;9.456;2023-05-03T14:50:57;100232.13;;;14.73;37.00
70982;BME280;58640;51.320;9.456;2023-05-03T14:53:33;100237.19;;;14.76;37.25
70982;BME280;58640;51.320;9.456;2023-05-03T14:55:59;100231.28;;;14.72;37.62
70982;BME280;58640;51.320;9.456;2023-05-03T14:58:29;100233.31;;;14.70;37.06
70982;BME280;58640;51.320;9.456;2023-05-03T15:01:01;100232.84;;;14.66;36.88
70982;BME280;58640;51.320;9.456;2023-05-03T15:18:20;100222.69;;;14.68;36.99
70982;BME280;58640;51.320;9.456;2023-05-03T16:01:22;100192.59;;;14.63;36.46
70982;BME280;58640;51.320;9.456;2023-05-03T16:03:48;100202.81;;;14.76;36.29
70982;BME280;58640;51.320;9.456;2023-05-03T16:06:15;100210.00;;;14.69;36.51
70982;BME280;58640;51.320;9.456;2023-05-03T16:08:41;100206.72;;;14.74;36.54
70982;BME280;58640;51.320;9.456;2023-05-03T16:11:08;100196.75;;;14.74;36.03
70982;BME280;58640;51.320;9.456;2023-05-03T16:13:34;100192.25;;;14.81;36.48
70982;BME280;58640;51.320;9.456;2023-05-03T16:15:59;100191.50;;;14.87;37.14
70982;BME280;58640;51.320;9.456;2023-05-03T16:18:26;100188.88;;;14.79;36.52
70982;BME280;58640;51.320;9.456;2023-05-03T16:20:52;100191.06;;;14.84;36.48
70982;BME280;58640;51.320;9.456;2023-05-03T16:23:17;100192.16;;;14.75;36.64
70982;BME280;58640;51.320;9.456;2023-05-03T16:25:42;100177.22;;;14.64;37.04
70982;BME280;58640;51.320;9.456;2023-05-03T16:28:08;100182.22;;;14.52;36.99
70982;BME280;58640;51.320;9.456;2023-05-03T16:30:33;100183.44;;;14.50;37.50
70982;BME280;58640;51.320;9.456;2023-05-03T16:32:59;100181.38;;;14.52;37.63
70982;BME280;58640;51.320;9.456;2023-05-03T16:35:26;100178.47;;;14.39;38.07
70982;BME280;58640;51.320;9.456;2023-05-03T16:37:51;100172.19;;;14.38;38.32
70982;BME280;58640;51.320;9.456;2023-05-03T16:40:17;100174.47;;;14.49;37.98
70982;BME280;58640;51.320;9.456;2023-05-03T16:42:43;100167.34;;;14.34;38.24
70982;BME280;58640;51.320;9.456;2023-05-03T16:45:08;100176.56;;;14.39;38.24
70982;BME280;58640;51.320;9.456;2023-05-03T16:47:37;100177.06;;;14.43;38.35
70982;BME280;58640;51.320;9.456;2023-05-03T16:50:04;100179.69;;;14.51;38.44
70982;BME280;58640;51.320;9.456;2023-05-03T16:52:36;100170.91;;;14.49;38.49
70982;BME280;58640;51.320;9.456;2023-05-03T16:55:02;100174.72;;;14.40;38.73
70982;BME280;58640;51.320;9.456;2023-05-03T16:57:27;100169.84;;;14.35;38.98
70982;BME280;58640;51.320;9.456;2023-05-03T16:59:52;100167.41;;;14.26;39.60
70982;BME280;58640;51.320;9.456;2023-05-03T17:02:18;100165.44;;;14.34;39.66
70982;BME280;58640;51.320;9.456;2023-05-03T17:04:43;100169.00;;;14.35;39.68
70982;BME280;58640;51.320;9.456;2023-05-03T17:07:09;100171.97;;;14.25;40.75
70982;BME280;58640;51.320;9.456;2023-05-03T17:09:34;100166.13;;;14.36;39.56
70982;BME280;58640;51.320;9.456;2023-05-03T17:12:01;100176.63;;;14.31;39.48
70982;BME280;58640;51.320;9.456;2023-05-03T17:14:26;100174.72;;;14.40;39.40
70982;BME280;58640;51.320;9.456;2023-05-03T17:16:51;100167.16;;;14.35;39.83
70982;BME280;58640;51.320;9.456;2023-05-03T17:19:17;100165.84;;;14.46;39.66
70982;BME280;58640;51.320;9.456;2023-05-03T17:21:43;100164.84;;;14.47;39.82
70982;BME280;58640;51.320;9.456;2023-05-03T17:24:08;100167.91;;;14.21;40.17
70982;BME280;58640;51.320;9.456;2023-05-03T17:26:35;100167.44;;;14.18;40.72
70982;BME280;58640;51.320;9.456;2023-05-03T17:29:01;100164.13;;;14.08;40.98
70982;BME280;58640;51.320;9.456;2023-05-03T17:31:26;100165.84;;;14.23;40.77
70982;BME280;58640;51.320;9.456;2023-05-03T17:33:51;100160.50;;;14.15;41.09
70982;BME280;58640;51.320;9.456;2023-05-03T17:36:17;100166.16;;;14.06;41.49
70982;BME280;58640;51.320;9.456;2023-05-03T17:38:42;100160.16;;;13.96;42.14
70982;BME280;58640;51.320;9.456;2023-05-03T17:41:09;100157.16;;;13.91;42.06
70982;BME280;58640;51.320;9.456;2023-05-03T17:43:36;100152.94;;;14.11;41.78
70982;BME280;58640;51.320;9.456;2023-05-03T17:46:08;100158.44;;;14.25;41.29
70982;BME280;58640;51.320;9.456;2023-05-03T17:48:35;100155.22;;;14.22;41.33
70982;BME280;58640;51.320;9.456;2023-05-03T17:51:03;100161.69;;;13.90;42.32
70982;BME280;58640;51.320;9.456;2023-05-03T17:53:28;100163.50;;;13.98;41.99
70982;BME280;58640;51.320;9.456;2023-05-03T17:55:53;100157.84;;;14.07;41.85
70982;BME280;58640;51.320;9.456;2023-05-03T17:58:19;100157.69;;;13.86;42.45
70982;BME280;58640;51.320;9.456;2023-05-03T18:00:45;100155.56;;;13.96;42.25
70982;BME280;58640;51.320;9.456;2023-05-03T18:03:10;100160.78;;;13.98;42.10
70982;BME280;58640;51.320;9.456;2023-05-03T18:05:37;100158.28;;;13.96;42.14
70982;BME280;58640;51.320;9.456;2023-05-03T18:08:03;100164.16;;;13.77;42.19